Time;durP1;ratioP1;P1;durP2;ratioP2;P2;SDS_P1;SDS_P2;PMS_P1;PMS_P2;Temp;Humidity;BMP_temperature;BMP_pressure;BME280_temperature;BME280_humidity;BME280_pressure;Samples;Min_cycle;Max_cycle;Signal;HPM_P1;HPM_P2
2023/07/02 00:01:35;;;;;;;1999.90;999.90;;;18.20;99.90;;;;;;5005319;28;20468;-74
2023/07/02 00:04:01;;;;;;;1999.90;999.90;;;18.10;99.90;;;;;;5006125;28;20436;-70
2023/07/02 00:06:28;;;;;;;1999.90;999.90;;;18.10;99.90;;;;;;5007509;28;20436;-72
2023/07/02 00:08:55;;;;;;;1999.90;999.90;;;18.00;99.90;;;;;;5008343;28;20429;-73
2023/07/02 00:11:21;;;;;;;1999.90;999.90;;;17.80;99.90;;;;;;5006691;28;20436;-73
2023/07/02 00:13:48;;;;;;;1999.90;999.90;;;17.90;99.90;;;;;;5006189;28;20918;-73
2023/07/02 00:16:14;;;;;;;1999.90;999.90;;;18.00;99.90;;;;;;5008730;28;20440;-73
2023/07/02 00:18:42;;;;;;;1999.90;999.90;;;18.00;99.90;;;;;;5008952;28;20502;-73
2023/07/02 00:21:13;;;;;;;1999.90;999.90;;;18.00;99.90;;;;;;5007260;28;20440;-72
2023/07/02 00:23:39;;;;;;;1999.90;999.90;;;18.10;99.90;;;;;;5006184;28;20498;-73
2023/07/02 00:26:06;;;;;;;1999.90;999.90;;;18.10;99.90;;;;;;5007065;28;20782;-73
2023/07/02 00:28:32;;;;;;;1999.90;999.90;;;18.10;99.90;;;;;;5008332;28;20486;-72
2023/07/02 00:30:59;;;;;;;1999.90;999.90;;;18.20;99.90;;;;;;5008159;28;20479;-73
2023/07/02 00:33:25;;;;;;;1999.90;999.90;;;18.30;99.90;;;;;;5006903;28;20780;-74
2023/07/02 00:35:53;;;;;;;1999.90;999.90;;;18.40;99.90;;;;;;5007504;28;20433;-72
2023/07/02 00:38:20;;;;;;;1999.90;999.90;;;18.40;99.90;;;;;;5008391;28;20487;-73
2023/07/02 00:40:47;;;;;;;1999.90;999.90;;;18.40;99.90;;;;;;5008230;28;20463;-73
2023/07/02 00:43:13;;;;;;;1999.90;999.90;;;18.20;99.90;;;;;;5007784;28;20487;-72
2023/07/02 00:45:40;;;;;;;1999.90;999.90;;;18.30;99.90;;;;;;5005589;28;20436;-71
2023/07/02 00:48:07;;;;;;;1999.90;999.90;;;18.10;99.90;;;;;;5008078;28;20457;-72
2023/07/02 00:50:33;;;;;;;1999.90;999.90;;;18.10;99.90;;;;;;5008076;28;20585;-73
2023/07/02 00:53:01;;;;;;;1999.90;999.90;;;18.10;99.90;;;;;;5006329;28;20433;-71
2023/07/02 00:55:28;;;;;;;1999.90;999.90;;;18.10;99.90;;;;;;5007238;28;20459;-73
2023/07/02 00:57:56;;;;;;;1999.90;999.90;;;18.10;99.90;;;;;;5007470;28;20780;-72
2023/07/02 01:00:23;;;;;;;1999.90;999.90;;;18.00;99.90;;;;;;5008542;28;20962;-72
2023/07/02 01:02:58;;;;;;;1999.90;999.90;;;18.20;99.90;;;;;;5007312;28;20437;-72
2023/07/02 01:05:26;;;;;;;1999.90;999.90;;;18.30;99.90;;;;;;5007491;28;21095;-71
2023/07/02 01:07:52;;;;;;;1999.90;999.90;;;18.30;99.90;;;;;;5009128;28;20546;-70
2023/07/02 01:10:20;;;;;;;1999.90;999.90;;;18.20;99.90;;;;;;5011441;28;20436;-72
2023/07/02 01:12:48;;;;;;;1999.90;999.90;;;18.30;99.90;;;;;;5011390;28;20436;-71
2023/07/02 01:15:14;;;;;;;1999.90;999.90;;;18.30;99.90;;;;;;5008633;28;20483;-71
2023/07/02 01:17:42;;;;;;;1999.90;999.90;;;18.50;99.90;;;;;;5011707;28;20487;-71
2023/07/02 01:20:12;;;;;;;1999.90;999.90;;;18.40;99.90;;;;;;5009765;28;20815;-72
2023/07/02 01:22:39;;;;;;;1999.90;999.90;;;18.40;99.90;;;;;;5008465;28;20482;-72
2023/07/02 01:25:08;;;;;;;1999.90;999.90;;;18.20;99.90;;;;;;5008361;28;20433;-71
2023/07/02 01:27:35;;;;;;;1999.90;999.90;;;17.90;99.90;;;;;;5010176;28;20436;-72
2023/07/02 01:30:02;;;;;;;1999.90;999.90;;;17.70;99.90;;;;;;5010117;28;20486;-72
2023/07/02 01:32:29;;;;;;;1999.90;999.90;;;17.70;99.90;;;;;;5009992;28;20444;-72
2023/07/02 01:34:55;;;;;;;1999.90;999.90;;;17.70;99.90;;;;;;5007643;28;20428;-72
2023/07/02 01:37:23;;;;;;;1999.90;999.90;;;17.80;99.90;;;;;;5010257;28;20467;-71
2023/07/02 01:39:50;;;;;;;1999.90;999.90;;;17.70;99.90;;;;;;5011233;28;20919;-71
2023/07/02 01:42:18;;;;;;;1999.90;999.90;;;17.70;99.90;;;;;;5008599;28;20467;-71
2023/07/02 01:44:47;;;;;;;1999.90;999.90;;;17.70;99.90;;;;;;5010407;28;20440;-72
2023/07/02 01:47:15;;;;;;;1999.90;999.90;;;17.60;99.90;;;;;;5010429;28;20441;-70
2023/07/02 01:49:42;;;;;;;1999.90;999.90;;;17.50;99.90;;;;;;5011495;28;20443;-73
2023/07/02 01:52:08;;;;;;;1999.90;999.90;;;17.50;99.90;;;;;;5010705;28;20850;-72
2023/07/02 01:54:37;;;;;;;1999.90;999.90;;;17.50;99.90;;;;;;5010066;28;20432;-71
2023/07/02 01:57:04;;;;;;;1999.90;999.90;;;17.60;99.90;;;;;;5009192;28;20439;-72
2023/07/02 01:59:31;;;;;;;1999.90;999.90;;;17.60;99.90;;;;;;5010537;28;20478;-72
2023/07/02 02:01:58;;;;;;;1999.90;999.90;;;17.60;99.90;;;;;;5010555;28;20578;-71
2023/07/02 02:04:24;;;;;;;1999.90;999.90;;;17.50;99.90;;;;;;5010740;28;20494;-71
2023/07/02 02:06:52;;;;;;;1999.90;999.90;;;17.40;99.90;;;;;;5009289;28;20483;-72
2023/07/02 02:09:19;;;;;;;1999.90;999.90;;;17.50;99.90;;;;;;5015531;23;20955;-73
2023/07/02 02:11:49;;;;;;;1999.90;999.90;;;17.50;99.90;;;;;;4970737;28;20436;-73
2023/07/02 02:14:16;;;;;;;1999.90;999.90;;;17.50;99.90;;;;;;4969488;28;20555;-73
2023/07/02 02:16:45;;;;;;;1999.90;999.90;;;17.60;99.90;;;;;;4970247;28;20436;-73
2023/07/02 02:19:12;;;;;;;1999.90;999.90;;;17.60;99.90;;;;;;4970032;28;20846;-74
2023/07/02 02:21:38;;;;;;;1999.90;999.90;;;17.70;99.90;;;;;;4970725;28;20443;-72
2023/07/02 02:24:06;;;;;;;1999.90;999.90;;;17.70;99.90;;;;;;4971258;28;20929;-73
2023/07/02 02:26:33;;;;;;;1999.90;999.90;;;17.60;99.90;;;;;;4974910;28;20444;-73
2023/07/02 02:29:01;;;;;;;1999.90;999.90;;;17.60;99.90;;;;;;4970572;28;20526;-73
2023/07/02 02:31:28;;;;;;;1999.90;999.90;;;17.60;99.90;;;;;;4972593;28;20509;-71
2023/07/02 02:33:54;;;;;;;1999.90;999.90;;;17.50;99.90;;;;;;4976094;28;20438;-73
2023/07/02 02:36:21;;;;;;;1999.90;999.90;;;17.50;99.90;;;;;;4979897;28;20455;-73
2023/07/02 02:38:47;;;;;;;1999.90;999.90;;;17.40;99.90;;;;;;4973658;28;20500;-73
2023/07/02 02:41:14;;;;;;;1999.90;999.90;;;17.30;99.90;;;;;;4970166;28;20975;-73
2023/07/02 02:43:42;;;;;;;1999.90;999.90;;;17.30;99.90;;;;;;4970472;28;20428;-73
2023/07/02 02:46:10;;;;;;;1999.90;999.90;;;17.30;99.90;;;;;;4976452;28;20432;-73
2023/07/02 02:48:37;;;;;;;1999.90;999.90;;;17.20;99.90;;;;;;4976029;28;21103;-70
2023/07/02 02:51:04;;;;;;;1999.90;999.90;;;17.20;99.90;;;;;;4970855;28;20974;-73
2023/07/02 02:53:30;;;;;;;1999.90;999.90;;;17.10;99.90;;;;;;4970364;28;20494;-73
2023/07/02 02:55:57;;;;;;;1999.90;999.90;;;17.00;99.90;;;;;;4976973;28;20436;-70
2023/07/02 02:58:23;;;;;;;1999.90;999.90;;;17.00;99.90;;;;;;4970171;28;20436;-73
2023/07/02 03:00:51;;;;;;;1999.90;999.90;;;17.00;99.90;;;;;;4970922;28;20436;-73
2023/07/02 03:03:20;;;;;;;1999.90;999.90;;;16.90;99.90;;;;;;4965266;28;20471;-73
2023/07/02 03:05:48;;;;;;;1999.90;999.90;;;16.80;99.90;;;;;;4967150;28;20523;-73
2023/07/02 03:08:14;;;;;;;1999.90;999.90;;;16.70;99.90;;;;;;4970901;28;20930;-73
2023/07/02 03:10:41;;;;;;;1999.90;999.90;;;16.60;99.90;;;;;;4970512;28;20436;-73
2023/07/02 03:13:07;;;;;;;1999.90;999.90;;;16.60;99.90;;;;;;4969887;28;20443;-73
2023/07/02 03:15:34;;;;;;;1999.90;999.90;;;16.60;99.90;;;;;;4969530;28;20788;-73
2023/07/02 03:18:01;;;;;;;1999.90;999.90;;;16.40;99.90;;;;;;4968740;28;20565;-73
2023/07/02 03:20:29;;;;;;;1999.90;999.90;;;16.50;99.90;;;;;;4968250;28;20522;-73
2023/07/02 03:22:55;;;;;;;1999.90;999.90;;;16.50;99.90;;;;;;4967206;28;20436;-73
2023/07/02 03:25:22;;;;;;;1999.90;999.90;;;16.40;99.90;;;;;;4967072;28;20475;-73
2023/07/02 03:27:48;;;;;;;1999.90;999.90;;;16.40;99.90;;;;;;4969241;28;20850;-70
2023/07/02 03:30:15;;;;;;;1999.90;999.90;;;16.40;99.90;;;;;;4968096;28;20432;-70
2023/07/02 03:32:42;;;;;;;1999.90;999.90;;;16.40;99.90;;;;;;4967959;28;20945;-72
2023/07/02 03:35:08;;;;;;;1999.90;999.90;;;16.40;99.90;;;;;;4972130;28;20490;-73
2023/07/02 03:37:36;;;;;;;1999.90;999.90;;;16.50;99.90;;;;;;4970496;28;20524;-73
2023/07/02 03:40:04;;;;;;;1999.90;999.90;;;16.50;99.90;;;;;;4969799;28;20432;-73
2023/07/02 03:42:30;;;;;;;1999.90;999.90;;;16.60;99.90;;;;;;4969550;28;20439;-73
2023/07/02 03:44:57;;;;;;;1999.90;999.90;;;16.60;99.90;;;;;;4970125;28;21478;-72
2023/07/02 03:47:23;;;;;;;1999.90;999.90;;;16.60;99.90;;;;;;4969599;28;20436;-72
2023/07/02 03:49:50;;;;;;;1999.90;999.90;;;16.60;99.90;;;;;;4969198;28;20491;-73
2023/07/02 03:52:17;;;;;;;1999.90;999.90;;;16.70;99.90;;;;;;4969058;28;20446;-74
2023/07/02 03:54:45;;;;;;;1999.90;999.90;;;16.70;99.90;;;;;;4976527;28;20444;-73
2023/07/02 03:57:11;;;;;;;1999.90;999.90;;;16.70;99.90;;;;;;4967995;28;20498;-74
2023/07/02 03:59:38;;;;;;;1999.90;999.90;;;16.90;99.90;;;;;;4976171;28;20434;-73
2023/07/02 04:02:05;;;;;;;1999.90;999.90;;;16.90;99.90;;;;;;4978033;28;20508;-72
2023/07/02 04:04:32;;;;;;;1999.90;999.90;;;17.10;99.90;;;;;;4982001;28;20572;-74
2023/07/02 04:06:58;;;;;;;1999.90;999.90;;;17.20;99.90;;;;;;4971504;28;20440;-73
2023/07/02 04:09:25;;;;;;;1999.90;999.90;;;17.40;99.90;;;;;;4969423;28;20930;-72
2023/07/02 04:11:53;;;;;;;1999.90;999.90;;;17.40;99.90;;;;;;4977850;28;20434;-73
2023/07/02 04:14:19;;;;;;;1999.90;999.90;;;17.50;99.90;;;;;;4974042;28;20432;-73
2023/07/02 04:16:46;;;;;;;1999.90;999.90;;;17.50;99.90;;;;;;4969368;28;20495;-73
2023/07/02 04:19:13;;;;;;;1999.90;999.90;;;17.30;99.90;;;;;;4969886;28;20443;-73
2023/07/02 04:21:39;;;;;;;1999.90;999.90;;;17.40;99.90;;;;;;4969014;28;20938;-70
2023/07/02 04:24:06;;;;;;;1999.90;999.90;;;17.40;99.90;;;;;;4975368;28;20438;-74
2023/07/02 04:26:33;;;;;;;1999.90;999.90;;;17.40;99.90;;;;;;4968869;28;20444;-73
2023/07/02 04:29:01;;;;;;;1999.90;999.90;;;17.40;99.90;;;;;;4969629;28;20439;-73
2023/07/02 04:31:27;;;;;;;1999.90;999.90;;;17.40;99.90;;;;;;4969639;28;20432;-73
2023/07/02 04:33:54;;;;;;;1999.90;999.90;;;17.60;99.90;;;;;;4976616;28;20598;-74
2023/07/02 04:36:20;;;;;;;1999.90;999.90;;;17.50;99.90;;;;;;4974606;28;20874;-73
2023/07/02 04:38:47;;;;;;;1999.90;999.90;;;17.50;99.90;;;;;;4969724;28;20490;-73
2023/07/02 04:41:13;;;;;;;1999.90;999.90;;;17.50;99.90;;;;;;4968353;28;20439;-73
2023/07/02 04:43:40;;;;;;;1999.90;999.90;;;17.70;99.90;;;;;;4974177;28;20446;-73
2023/07/02 04:46:08;;;;;;;1999.90;999.90;;;17.70;99.90;;;;;;4970295;28;20443;-73
2023/07/02 04:48:35;;;;;;;1999.90;999.90;;;18.10;99.90;;;;;;4969756;28;20444;-73
2023/07/02 04:51:01;;;;;;;1999.90;999.90;;;18.20;99.90;;;;;;4968511;28;20923;-73
2023/07/02 04:53:28;;;;;;;1999.90;999.90;;;18.10;99.90;;;;;;4967605;28;20436;-73
2023/07/02 04:55:54;;;;;;;1999.90;999.90;;;18.10;99.90;;;;;;4967026;28;20436;-73
2023/07/02 04:58:21;;;;;;;1999.90;999.90;;;18.10;99.90;;;;;;4969883;28;20440;-71
2023/07/02 05:00:48;;;;;;;1999.90;999.90;;;18.10;99.90;;;;;;4969248;28;20487;-70
2023/07/02 05:03:16;;;;;;;1999.90;999.90;;;18.10;99.90;;;;;;4978475;28;20439;-73
2023/07/02 05:05:42;;;;;;;1999.90;999.90;;;18.10;99.90;;;;;;4967977;28;20444;-73
2023/07/02 05:08:09;;;;;;;1999.90;999.90;;;18.10;99.90;;;;;;4968987;28;20440;-73
2023/07/02 05:10:35;;;;;;;1999.90;999.90;;;18.20;99.90;;;;;;4969016;28;20431;-74
2023/07/02 05:13:02;;;;;;;1999.90;999.90;;;18.20;99.90;;;;;;4974728;28;20828;-73
2023/07/02 05:15:28;;;;;;;1999.90;999.90;;;18.00;99.90;;;;;;4968517;28;20436;-73
2023/07/02 05:17:55;;;;;;;1999.90;999.90;;;18.10;99.90;;;;;;4968931;28;20510;-73
2023/07/02 05:20:23;;;;;;;1999.90;999.90;;;18.00;99.90;;;;;;4970973;28;20436;-74
2023/07/02 05:22:50;;;;;;;1999.90;999.90;;;17.90;99.90;;;;;;4967324;28;20580;-72
2023/07/02 05:25:16;;;;;;;1999.90;999.90;;;17.90;99.90;;;;;;4967949;28;20440;-73
2023/07/02 05:27:43;;;;;;;1999.90;999.90;;;17.90;99.90;;;;;;4968865;28;20439;-72
2023/07/02 05:30:10;;;;;;;1999.90;999.90;;;17.90;99.90;;;;;;4973087;28;20430;-72
2023/07/02 05:32:39;;;;;;;1999.90;999.90;;;18.00;99.90;;;;;;4977380;28;22731;-73
2023/07/02 05:35:06;;;;;;;1999.90;999.90;;;18.00;99.90;;;;;;4975257;28;20479;-73
2023/07/02 05:37:34;;;;;;;1999.90;999.90;;;18.10;99.90;;;;;;4970670;28;20443;-73
2023/07/02 05:40:00;;;;;;;1999.90;999.90;;;18.00;99.90;;;;;;4976605;28;20435;-72
2023/07/02 05:42:27;;;;;;;1999.90;999.90;;;18.10;99.90;;;;;;4984079;28;20436;-73
2023/07/02 05:44:53;;;;;;;1999.90;999.90;;;18.30;99.90;;;;;;4981684;28;20860;-73
2023/07/02 05:47:20;;;;;;;1999.90;999.90;;;18.30;99.90;;;;;;4975459;28;20443;-69
2023/07/02 05:49:47;;;;;;;1999.90;999.90;;;18.00;99.90;;;;;;4969249;28;20436;-71
2023/07/02 05:52:13;;;;;;;1999.90;999.90;;;17.80;99.90;;;;;;4971940;28;20949;-71
2023/07/02 05:54:42;;;;;;;1999.90;999.90;;;17.90;99.90;;;;;;4984434;28;20434;-71
2023/07/02 05:57:08;;;;;;;1999.90;999.90;;;18.00;99.90;;;;;;4984020;28;20438;-71
2023/07/02 05:59:35;;;;;;;1999.90;999.90;;;18.00;99.90;;;;;;4980378;28;20818;-71
2023/07/02 06:02:02;;;;;;;1999.90;999.90;;;18.00;99.90;;;;;;4978553;28;20485;-71
2023/07/02 06:04:28;;;;;;;1999.90;999.90;;;17.90;99.90;;;;;;4971593;28;20475;-71
2023/07/02 06:06:55;;;;;;;1999.90;999.90;;;17.90;99.90;;;;;;4972507;28;20440;-73
2023/07/02 06:09:22;;;;;;;1999.90;999.90;;;18.00;99.90;;;;;;4984561;28;20447;-73
2023/07/02 06:11:50;;;;;;;1999.90;999.90;;;17.90;99.90;;;;;;4983311;28;20462;-71
2023/07/02 06:14:16;;;;;;;1999.90;999.90;;;17.90;99.90;;;;;;4977383;28;20436;-71
2023/07/02 06:16:43;;;;;;;1999.90;999.90;;;17.90;99.90;;;;;;4973181;28;21118;-71
2023/07/02 06:19:09;;;;;;;1999.90;999.90;;;17.80;99.90;;;;;;4981015;28;20442;-71
2023/07/02 06:21:37;;;;;;;1999.90;999.90;;;17.80;99.90;;;;;;4987783;28;20431;-71
2023/07/02 06:24:04;;;;;;;1999.90;999.90;;;17.90;99.90;;;;;;4979792;28;20438;-71
2023/07/02 06:26:32;;;;;;;1999.90;999.90;;;17.80;99.90;;;;;;4984497;28;20509;-69
2023/07/02 06:29:00;;;;;;;1999.90;999.90;;;17.80;99.90;;;;;;4971144;28;20449;-71
2023/07/02 06:31:26;;;;;;;1999.90;999.90;;;17.80;99.90;;;;;;4975242;28;20436;-71
2023/07/02 06:33:53;;;;;;;1999.90;999.90;;;17.90;99.90;;;;;;4972279;28;20966;-71
2023/07/02 06:36:20;;;;;;;1999.90;999.90;;;17.80;99.90;;;;;;4973522;28;20427;-69
2023/07/02 06:38:46;;;;;;;1999.90;999.90;;;17.70;99.90;;;;;;4971688;28;20439;-70
2023/07/02 06:41:13;;;;;;;1999.90;999.90;;;17.70;99.90;;;;;;4973058;28;20553;-71
2023/07/02 06:43:42;;;;;;;1999.90;999.90;;;17.20;99.90;;;;;;4974529;28;20500;-69
2023/07/02 06:46:11;;;;;;;1999.90;999.90;;;16.30;99.90;;;;;;4975415;28;20487;-69
2023/07/02 06:48:37;;;;;;;1999.90;999.90;;;15.70;99.90;;;;;;4970538;28;20439;-73
2023/07/02 06:51:04;;;;;;;1999.90;999.90;;;15.50;99.90;;;;;;4976641;28;20566;-72
2023/07/02 06:53:30;;;;;;;1999.90;999.90;;;15.40;99.90;;;;;;4974187;28;20491;-73
2023/07/02 06:55:57;;;;;;;1999.90;999.90;;;15.20;99.90;;;;;;4971192;28;20445;-71
2023/07/02 06:58:24;;;;;;;1999.90;999.90;;;15.20;99.90;;;;;;4972732;28;20428;-73
2023/07/02 07:00:50;;;;;;;1999.90;999.90;;;15.10;99.90;;;;;;4972544;28;20416;-71
2023/07/02 07:03:18;;;;;;;1999.90;999.90;;;15.10;99.90;;;;;;4972826;28;20440;-71
2023/07/02 07:05:45;;;;;;;1999.90;999.90;;;15.10;99.90;;;;;;4975733;28;20604;-74
2023/07/02 07:08:11;;;;;;;1999.90;999.90;;;15.10;99.90;;;;;;4977348;28;20486;-73
2023/07/02 07:10:38;;;;;;;1999.90;999.90;;;15.10;99.90;;;;;;4982026;28;20566;-74
2023/07/02 07:13:05;;;;;;;1999.90;999.90;;;15.10;99.90;;;;;;4981839;28;20438;-73
2023/07/02 07:15:35;;;;;;;1999.90;999.90;;;15.20;99.90;;;;;;4978296;28;21140;-71
2023/07/02 07:18:01;;;;;;;1999.90;999.90;;;15.20;99.90;;;;;;4968120;28;20862;-71
2023/07/02 07:20:30;;;;;;;1999.90;999.90;;;15.30;99.90;;;;;;4965556;28;20487;-72
2023/07/02 07:22:57;;;;;;;1999.90;999.90;;;15.30;99.90;;;;;;4979357;28;20845;-72
2023/07/02 07:25:24;;;;;;;1999.90;999.90;;;15.40;99.90;;;;;;4977872;28;20440;-72
2023/07/02 07:27:50;;;;;;;1999.90;999.90;;;15.60;99.90;;;;;;4972220;28;20932;-71
2023/07/02 07:30:22;;;;;;;1999.90;999.90;;;15.70;99.90;;;;;;4970626;28;20438;-70
2023/07/02 07:32:49;;;;;;;1999.90;999.90;;;15.90;99.90;;;;;;4981402;28;20457;-71
2023/07/02 07:35:16;;;;;;;1999.90;999.90;;;16.00;99.90;;;;;;4979364;28;20499;-70
2023/07/02 07:37:44;;;;;;;1999.90;999.90;;;16.20;99.90;;;;;;4975629;28;20446;-70
2023/07/02 07:40:11;;;;;;;1999.90;999.90;;;16.30;99.90;;;;;;4975144;28;20864;-72
2023/07/02 07:42:38;;;;;;;1999.90;999.90;;;16.60;99.90;;;;;;4969492;28;20500;-72
2023/07/02 07:45:05;;;;;;;1999.90;999.90;;;16.80;99.90;;;;;;4976364;28;20446;-72
2023/07/02 07:47:32;;;;;;;1999.90;999.90;;;17.10;99.90;;;;;;4980368;28;20447;-70
2023/07/02 07:49:58;;;;;;;1999.90;999.90;;;17.10;99.90;;;;;;4978423;28;20438;-72
2023/07/02 07:52:25;;;;;;;1999.90;999.90;;;17.50;99.90;;;;;;4975116;28;20810;-72
2023/07/02 07:54:53;;;;;;;1999.90;999.90;;;17.90;99.90;;;;;;4972156;28;20486;-69
2023/07/02 07:57:20;;;;;;;1999.90;999.90;;;18.40;99.90;;;;;;4972793;28;20440;-74
2023/07/02 07:59:46;;;;;;;1999.90;999.90;;;18.70;99.90;;;;;;4980675;28;20445;-74
2023/07/02 08:02:13;;;;;;;1999.90;999.90;;;18.70;99.90;;;;;;4973862;28;20475;-74
2023/07/02 08:04:39;;;;;;;1999.90;999.90;;;18.50;99.90;;;;;;4970200;28;20486;-75
2023/07/02 08:07:08;;;;;;;1999.90;999.90;;;18.70;99.90;;;;;;4976288;28;20521;-74
2023/07/02 08:09:35;;;;;;;1999.90;999.90;;;18.60;99.90;;;;;;4969738;28;20866;-74
2023/07/02 08:12:04;;;;;;;1999.90;999.90;;;18.90;99.90;;;;;;4980471;28;20440;-75
2023/07/02 08:14:30;;;;;;;1999.90;999.90;;;19.10;99.90;;;;;;4969293;28;20662;-71
2023/07/02 08:16:57;;;;;;;1999.90;999.90;;;18.60;99.90;;;;;;4980627;28;20438;-75
2023/07/02 08:19:24;;;;;;;1999.90;999.90;;;18.70;99.90;;;;;;4972775;28;20443;-74
2023/07/02 08:21:51;;;;;;;1999.90;999.90;;;18.90;99.90;;;;;;4972961;28;20443;-73
2023/07/02 08:24:18;;;;;;;1999.90;999.90;;;18.90;99.90;;;;;;4970417;28;20997;-74
2023/07/02 08:26:45;;;;;;;1999.90;999.90;;;18.80;99.90;;;;;;4969091;28;20419;-73
2023/07/02 08:29:13;;;;;;;1999.90;999.90;;;18.80;99.90;;;;;;4983188;28;20481;-74
2023/07/02 08:31:41;;;;;;;1999.90;999.90;;;19.00;99.90;;;;;;4980909;28;20434;-70
2023/07/02 08:34:07;;;;;;;1999.90;999.90;;;18.80;99.90;;;;;;4980491;28;20442;-75
2023/07/02 08:36:34;;;;;;;1999.90;999.90;;;18.70;99.90;;;;;;4972202;28;20440;-71
2023/07/02 08:39:01;;;;;;;1999.90;999.90;;;18.90;99.90;;;;;;4978744;28;20494;-74
2023/07/02 08:41:29;;;;;;;1999.90;999.90;;;19.00;99.90;;;;;;4984938;28;20438;-73
2023/07/02 08:43:57;;;;;;;1999.90;999.90;;;19.10;99.90;;;;;;4985417;28;20438;-74
2023/07/02 08:46:25;;;;;;;1999.90;999.90;;;19.30;99.90;;;;;;4982075;28;20434;-72
2023/07/02 08:48:52;;;;;;;1999.90;999.90;;;19.30;99.90;;;;;;4979652;28;20444;-74
2023/07/02 08:51:19;;;;;;;1999.90;999.90;;;19.40;99.90;;;;;;4976216;28;20506;-75
2023/07/02 08:53:45;;;;;;;1999.90;999.90;;;19.30;99.90;;;;;;4969489;28;20922;-75
2023/07/02 08:56:12;;;;;;;1999.90;999.90;;;19.20;99.90;;;;;;4984157;28;20569;-73
2023/07/02 08:58:38;;;;;;;1999.90;999.90;;;19.30;99.90;;;;;;4983286;28;20434;-72
2023/07/02 09:01:07;;;;;;;1999.90;999.90;;;19.00;99.90;;;;;;4978975;28;20430;-72
2023/07/02 09:03:36;;;;;;;1999.90;999.90;;;18.90;99.90;;;;;;4975605;28;20434;-71
2023/07/02 09:06:03;;;;;;;1999.90;999.90;;;18.90;99.90;;;;;;4971408;28;20539;-72
2023/07/02 09:08:33;;;;;;;1999.90;999.90;;;18.80;99.90;;;;;;4974903;28;20430;-74
2023/07/02 09:11:10;;;;;;;1999.90;999.90;;;18.80;99.90;;;;;;4971380;28;20464;-72
2023/07/02 09:13:49;;;;;;;1999.90;999.90;;;19.10;99.90;;;;;;4969775;28;20435;-74
2023/07/02 09:16:26;;;;;;;1999.90;999.90;;;19.20;99.90;;;;;;4970833;28;20428;-75
2023/07/02 09:19:02;;;;;;;1999.90;999.90;;;19.30;99.90;;;;;;4970742;28;20498;-75
2023/07/02 09:21:39;;;;;;;1999.90;999.90;;;19.70;99.90;;;;;;4961788;28;20432;-74
2023/07/02 09:24:16;;;;;;;1999.90;999.90;;;19.50;99.90;;;;;;4968461;28;20428;-75
2023/07/02 09:26:44;;;;;;;1999.90;999.90;;;19.40;99.90;;;;;;4969905;28;20432;-70
2023/07/02 09:29:11;;;;;;;1999.90;999.90;;;19.30;99.90;;;;;;4971665;28;20552;-72
2023/07/02 09:31:47;;;;;;;1999.90;999.90;;;19.30;99.90;;;;;;4973254;28;20450;-71
2023/07/02 09:34:15;;;;;;;1999.90;999.90;;;19.30;99.90;;;;;;4972800;28;20942;-72
2023/07/02 09:36:43;;;;;;;1999.90;999.90;;;19.50;99.90;;;;;;4973177;28;20424;-71
2023/07/02 09:39:12;;;;;;;1999.90;999.90;;;19.50;99.90;;;;;;4969351;28;20444;-73
2023/07/02 09:41:39;;;;;;;1999.90;999.90;;;19.60;99.90;;;;;;4976769;28;20427;-72
2023/07/02 09:44:07;;;;;;;1999.90;999.90;;;19.60;99.90;;;;;;4985825;28;20485;-72
2023/07/02 09:46:35;;;;;;;1999.90;999.90;;;19.50;99.90;;;;;;4975681;28;20441;-69
2023/07/02 09:49:01;;;;;;;1999.90;999.90;;;19.60;99.90;;;;;;4982816;28;20433;-76
2023/07/02 09:51:30;;;;;;;1999.90;999.90;;;19.60;99.90;;;;;;4978680;28;20498;-75
2023/07/02 09:53:56;;;;;;;1999.90;999.90;;;19.80;99.90;;;;;;4973151;28;20440;-75
2023/07/02 09:56:23;;;;;;;1999.90;999.90;;;19.90;99.90;;;;;;4976254;28;20440;-75
2023/07/02 09:58:50;;;;;;;1999.90;999.90;;;20.10;99.90;;;;;;4981268;28;20425;-75
2023/07/02 10:01:17;;;;;;;1999.90;999.90;;;20.10;99.90;;;;;;4976444;28;20521;-71
2023/07/02 10:03:43;;;;;;;1999.90;999.90;;;20.10;99.90;;;;;;4976191;28;20498;-74
2023/07/02 10:06:10;;;;;;;1999.90;999.90;;;20.10;99.90;;;;;;4973027;28;20519;-73
2023/07/02 10:08:38;;;;;;;1999.90;999.90;;;20.20;99.90;;;;;;4972333;28;20486;-74
2023/07/02 10:11:12;;;;;;;1999.90;999.90;;;19.60;99.90;;;;;;4974956;28;20497;-72
2023/07/02 10:13:40;;;;;;;1999.90;999.90;;;20.10;99.90;;;;;;4981444;28;20469;-73
2023/07/02 10:16:07;;;;;;;1999.90;999.90;;;20.30;99.90;;;;;;4981993;28;20496;-75
2023/07/02 10:18:34;;;;;;;1999.90;999.90;;;20.20;99.90;;;;;;4977877;28;20438;-73
2023/07/02 10:21:01;;;;;;;1999.90;999.90;;;20.30;99.90;;;;;;4976212;28;20438;-74
2023/07/02 10:23:34;;;;;;;1999.90;999.90;;;20.60;99.90;;;;;;4972096;28;20482;-75
2023/07/02 10:26:14;;;;;;;1999.90;999.90;;;20.80;99.90;;;;;;4974795;28;20503;-74
2023/07/02 10:28:40;;;;;;;1999.90;999.90;;;20.70;99.90;;;;;;4970319;28;20487;-73
2023/07/02 10:31:18;;;;;;;1999.90;999.90;;;20.70;99.90;;;;;;4975874;28;20438;-75
2023/07/02 10:33:45;;;;;;;1999.90;999.90;;;20.50;99.90;;;;;;4975533;28;20444;-75
2023/07/02 10:36:19;;;;;;;1999.90;999.90;;;20.50;99.90;;;;;;4973742;28;20499;-74
2023/07/02 10:38:46;;;;;;;1999.90;999.90;;;20.70;99.90;;;;;;4969489;28;20440;-74
2023/07/02 10:41:25;;;;;;;1999.90;999.90;;;20.60;99.90;;;;;;4978335;28;20808;-74
2023/07/02 10:43:51;;;;;;;1999.90;999.90;;;20.70;99.90;;;;;;4984352;28;20444;-74
2023/07/02 10:46:21;;;;;;;1999.90;999.90;;;20.70;99.90;;;;;;4978588;28;21006;-74
2023/07/02 10:48:55;;;;;;;1999.90;999.90;;;20.70;99.90;;;;;;4972772;28;20437;-75
2023/07/02 10:51:22;;;;;;;1999.90;999.90;;;20.80;99.90;;;;;;4969964;28;20439;-75
2023/07/02 10:53:58;;;;;;;1999.90;999.90;;;21.00;99.90;;;;;;4977865;28;20445;-72
2023/07/02 10:56:27;;;;;;;1999.90;999.90;;;21.30;99.90;;;;;;4972916;28;20439;-75
2023/07/02 10:58:54;;;;;;;1999.90;999.90;;;21.60;99.30;;;;;;4980978;28;20446;-75
2023/07/02 11:01:25;;;;;;;1999.90;999.90;;;21.80;97.80;;;;;;4972520;28;20530;-73
2023/07/02 11:04:04;;;;;;;1999.90;999.90;;;22.00;98.90;;;;;;4971257;28;20440;-72
2023/07/02 11:06:32;;;;;;;1999.90;999.90;;;22.10;98.90;;;;;;4970156;28;20434;-74
2023/07/02 11:09:00;;;;;;;1999.90;999.90;;;21.70;97.80;;;;;;4979809;28;20475;-72
2023/07/02 11:11:28;;;;;;;1999.90;999.90;;;20.90;99.40;;;;;;4971689;28;20906;-72
2023/07/02 11:13:55;;;;;;;1999.90;999.90;;;20.30;99.90;;;;;;4972150;28;20431;-73
2023/07/02 11:16:25;;;;;;;1999.90;999.90;;;20.00;99.90;;;;;;4972422;28;20902;-74
2023/07/02 11:19:07;;;;;;;1999.90;999.90;;;20.00;99.90;;;;;;4977974;28;20436;-75
2023/07/02 11:21:34;;;;;;;1999.90;999.90;;;20.10;99.90;;;;;;4977908;28;20437;-74
2023/07/02 11:24:03;;;;;;;1999.90;999.90;;;20.40;99.90;;;;;;4985183;28;20438;-75
2023/07/02 11:26:37;;;;;;;1999.90;999.90;;;20.60;99.90;;;;;;4982069;28;20452;-73
2023/07/02 11:29:04;;;;;;;1999.90;999.90;;;20.70;99.90;;;;;;4972486;28;20484;-72
2023/07/02 11:31:30;;;;;;;1999.90;999.90;;;20.70;99.90;;;;;;4973698;28;20494;-74
2023/07/02 11:33:57;;;;;;;1999.90;999.90;;;20.80;99.90;;;;;;4982943;28;20935;-76
2023/07/02 11:36:25;;;;;;;1999.90;999.90;;;20.80;99.90;;;;;;4978768;28;20440;-73
2023/07/02 11:38:52;;;;;;;1999.90;999.90;;;20.70;99.50;;;;;;4980859;28;20927;-74
2023/07/02 11:41:20;;;;;;;1999.90;999.90;;;20.70;99.10;;;;;;4975278;28;20467;-75
2023/07/02 11:43:48;;;;;;;1999.90;999.90;;;20.80;99.30;;;;;;4973024;28;20495;-74
2023/07/02 11:46:15;;;;;;;1999.90;999.90;;;20.80;99.90;;;;;;4978900;28;20494;-75
2023/07/02 11:48:42;;;;;;;1999.90;999.90;;;20.70;99.70;;;;;;4983483;28;20444;-71
2023/07/02 11:51:08;;;;;;;1999.90;999.90;;;20.60;99.30;;;;;;4973330;28;20438;-72
2023/07/02 11:53:35;;;;;;;1999.90;999.90;;;20.60;98.90;;;;;;4971356;28;20432;-74
2023/07/02 11:56:01;;;;;;;1999.90;999.90;;;20.50;98.40;;;;;;4969805;28;20810;-73
2023/07/02 11:58:28;;;;;;;1999.90;999.90;;;20.50;98.50;;;;;;4978556;28;20447;-74
2023/07/02 12:00:56;;;;;;;1999.90;999.90;;;20.60;99.50;;;;;;4977226;28;20456;-74